Time;durP1;ratioP1;P1;durP2;ratioP2;P2;SDS_P1;SDS_P2;PMS_P1;PMS_P2;Temp;Humidity;BMP_temperature;BMP_pressure;BME280_temperature;BME280_humidity;BME280_pressure;Samples;Min_cycle;Max_cycle;Signal;HPM_P1;HPM_P2
2023/04/21 00:00:45;;;;;;;;;;;;;;;;;;12982607;19;19923;-68
2023/04/21 00:05:09;;;;;;;;;;;;;;;;;;12980771;19;20261;-67
2023/04/21 00:09:27;;;;;;;;;;;;;;;;;;12983286;19;19919;-67
2023/04/21 00:13:44;;;;;;;;;;;;;;;;;;12983495;19;20271;-67
2023/04/21 00:18:03;;;;;;;;;;;;;;;;;;12983062;19;19930;-68
2023/04/21 00:22:21;;;;;;;;;;;;;;;;;;12982190;19;19931;-67
2023/04/21 00:26:38;;;;;;;;;;;;;;;;;;12982882;19;19936;-67
2023/04/21 00:30:56;;;;;;;;;;;;;;;;;;12982500;19;20336;-68
2023/04/21 00:35:13;;;;;;;;;;;;;;;;;;12981956;19;19926;-69
2023/04/21 00:39:31;;;;;;;;;;;;;;;;;;12981638;19;19931;-67
2023/04/21 00:44:02;;;;;;;;;;;;;;;;;;12981544;19;20235;-68
2023/04/21 00:48:20;;;;;;;;;;;;;;;;;;12981019;19;19931;-67
2023/04/21 00:52:39;;;;;;;;;;;;;;;;;;12981541;19;19918;-68
2023/04/21 00:57:00;;;;;;;;;;;;;;;;;;12981086;19;19936;-67
2023/04/21 01:01:19;;;;;;;;;;;;;;;;;;12980276;19;20330;-67
2023/04/21 01:05:36;;;;;;;;;;;;;;;;;;12980783;19;19964;-67
2023/04/21 01:09:55;;;;;;;;;;;;;;;;;;12980100;19;20252;-67
2023/04/21 01:14:14;;;;;;;;;;;;;;;;;;12979859;19;19918;-67
2023/04/21 01:18:31;;;;;;;;;;;;;;;;;;12992243;19;19918;-67
2023/04/21 01:22:50;;;;;;;;;;;;;;;;;;12991011;19;19915;-68
2023/04/21 01:27:10;;;;;;;;;;;;;;;;;;12991309;19;19941;-67
2023/04/21 01:31:27;;;;;;;;;;;;;;;;;;12991534;19;19919;-68
2023/04/21 01:35:45;;;;;;;;;;;;;;;;;;12991578;19;19926;-68
2023/04/21 01:40:06;;;;;;;;;;;;;;;;;;12989871;19;19934;-68
2023/04/21 01:44:25;;;;;;;;;;;;;;;;;;12991484;19;19924;-68
2023/04/21 01:48:42;;;;;;;;;;;;;;;;;;12991453;19;19922;-68
2023/04/21 01:53:00;;;;;;;;;;;;;;;;;;12991326;19;19931;-68
2023/04/21 01:57:18;;;;;;;;;;;;;;;;;;12991033;19;19922;-68
2023/04/21 02:01:35;;;;;;;;;;;;;;;;;;12990508;19;19927;-68
2023/04/21 02:05:53;;;;;;;;;;;;;;;;;;12990223;19;19915;-68
2023/04/21 02:10:11;;;;;;;;;;;;;;;;;;12988829;19;20239;-69
2023/04/21 02:14:29;;;;;;;;;;;;;;;;;;12989721;19;20333;-68
2023/04/21 02:18:47;;;;;;;;;;;;;;;;;;12989525;19;19915;-68
2023/04/21 02:23:04;;;;;;;;;;;;;;;;;;12987257;19;19945;-68
2023/04/21 02:27:22;;;;;;;;;;;;;;;;;;12987507;19;19919;-68
2023/04/21 02:31:40;;;;;;;;;;;;;;;;;;12989112;19;19915;-68
2023/04/21 02:36:15;;;;;;;;;;;;;;;;;;12989570;19;19915;-68
2023/04/21 02:40:32;;;;;;;;;;;;;;;;;;12988523;19;19936;-68
2023/04/21 02:44:50;;;;;;;;;;;;;;;;;;12988284;19;19919;-69
2023/04/21 02:49:08;;;;;;;;;;;;;;;;;;12986988;19;20735;-67
2023/04/21 02:53:26;;;;;;;;;;;;;;;;;;12987405;19;19922;-67
2023/04/21 02:57:43;;;;;;;;;;;;;;;;;;12988230;19;20351;-68
2023/04/21 03:02:01;;;;;;;;;;;;;;;;;;12984642;19;19919;-68
2023/04/21 03:06:18;;;;;;;;;;;;;;;;;;12986727;19;19921;-68
2023/04/21 03:10:37;;;;;;;;;;;;;;;;;;12986735;19;19915;-68
2023/04/21 03:14:55;;;;;;;;;;;;;;;;;;12986291;19;19922;-67
2023/04/21 03:19:13;;;;;;;;;;;;;;;;;;12986026;19;19928;-68
2023/04/21 03:23:30;;;;;;;;;;;;;;;;;;12985896;19;19915;-69
2023/04/21 03:27:48;;;;;;;;;;;;;;;;;;12986278;19;19927;-67
2023/04/21 03:32:06;;;;;;;;;;;;;;;;;;12984019;19;19925;-68
2023/04/21 03:36:23;;;;;;;;;;;;;;;;;;12984628;19;19914;-68
2023/04/21 03:40:41;;;;;;;;;;;;;;;;;;12983462;19;19943;-68
2023/04/21 03:45:02;;;;;;;;;;;;;;;;;;12983809;19;19926;-68
2023/04/21 03:49:20;;;;;;;;;;;;;;;;;;12981043;19;19923;-67
2023/04/21 03:53:38;;;;;;;;;;;;;;;;;;12982942;19;20272;-68
2023/04/21 03:57:55;;;;;;;;;;;;;;;;;;12983173;19;19919;-68
2023/04/21 04:02:13;;;;;;;;;;;;;;;;;;12981601;19;19931;-68
2023/04/21 04:06:31;;;;;;;;;;;;;;;;;;12982599;19;20255;-67
2023/04/21 04:10:49;;;;;;;;;;;;;;;;;;12982655;19;19931;-67
2023/04/21 04:15:07;;;;;;;;;;;;;;;;;;12981987;19;20364;-68
2023/04/21 04:19:31;;;;;;;;;;;;;;;;;;12980766;19;19928;-67
2023/04/21 04:23:51;;;;;;;;;;;;;;;;;;12981309;19;20338;-68
2023/04/21 04:28:09;;;;;;;;;;;;;;;;;;12981473;19;20313;-67
2023/04/21 04:32:27;;;;;;;;;;;;;;;;;;12982252;19;20233;-68
2023/04/21 04:36:46;;;;;;;;;;;;;;;;;;12981917;19;19948;-68
2023/04/21 04:41:05;;;;;;;;;;;;;;;;;;12979434;19;19933;-67
2023/04/21 04:45:25;;;;;;;;;;;;;;;;;;12981065;19;20329;-68
2023/04/21 04:49:42;;;;;;;;;;;;;;;;;;12982218;19;20242;-68
2023/04/21 04:54:01;;;;;;;;;;;;;;;;;;12992802;19;19923;-67
2023/04/21 04:58:18;;;;;;;;;;;;;;;;;;12990601;19;20195;-66
2023/04/21 05:02:37;;;;;;;;;;;;;;;;;;12992038;19;19933;-67
2023/04/21 05:06:55;;;;;;;;;;;;;;;;;;12992962;19;19918;-67
2023/04/21 05:11:13;;;;;;;;;;;;;;;;;;12992162;19;19918;-68
2023/04/21 05:15:30;;;;;;;;;;;;;;;;;;12992363;19;19918;-68
2023/04/21 05:19:48;;;;;;;;;;;;;;;;;;12991474;19;19915;-68
2023/04/21 05:24:05;;;;;;;;;;;;;;;;;;12989492;19;20366;-68
2023/04/21 05:28:23;;;;;;;;;;;;;;;;;;12991384;19;20306;-67
2023/04/21 05:32:40;;;;;;;;;;;;;;;;;;12991152;19;19929;-67
2023/04/21 05:36:58;;;;;;;;;;;;;;;;;;12990463;19;19918;-67
2023/04/21 05:41:15;;;;;;;;;;;;;;;;;;12989168;19;19915;-68
2023/04/21 05:45:38;;;;;;;;;;;;;;;;;;12991413;19;20268;-67
2023/04/21 05:49:55;;;;;;;;;;;;;;;;;;12990911;19;20371;-68
2023/04/21 05:54:13;;;;;;;;;;;;;;;;;;12989847;19;19918;-68
2023/04/21 05:58:31;;;;;;;;;;;;;;;;;;12990092;19;19919;-68
2023/04/21 06:02:48;;;;;;;;;;;;;;;;;;12986066;19;19928;-69
2023/04/21 06:07:07;;;;;;;;;;;;;;;;;;12988778;19;19929;-69
2023/04/21 06:11:25;;;;;;;;;;;;;;;;;;12989055;19;19915;-69
2023/04/21 06:15:42;;;;;;;;;;;;;;;;;;12988987;19;19929;-70
2023/04/21 06:20:00;;;;;;;;;;;;;;;;;;12982837;19;19943;-70
2023/04/21 06:24:23;;;;;;;;;;;;;;;;;;12978711;19;19919;-69
2023/04/21 06:28:42;;;;;;;;;;;;;;;;;;12988449;19;19923;-69
2023/04/21 06:32:59;;;;;;;;;;;;;;;;;;12987700;19;19919;-69
2023/04/21 06:37:17;;;;;;;;;;;;;;;;;;12986687;19;19918;-69
2023/04/21 06:41:35;;;;;;;;;;;;;;;;;;12986812;19;19927;-69
2023/04/21 06:45:52;;;;;;;;;;;;;;;;;;12986980;19;19915;-69
2023/04/21 06:50:10;;;;;;;;;;;;;;;;;;12985954;19;19919;-69
2023/04/21 06:54:27;;;;;;;;;;;;;;;;;;12986503;19;19926;-69
2023/04/21 06:58:45;;;;;;;;;;;;;;;;;;12986608;19;20386;-70
2023/04/21 07:03:03;;;;;;;;;;;;;;;;;;12984534;19;19919;-70
2023/04/21 07:07:21;;;;;;;;;;;;;;;;;;12986478;19;19935;-70
2023/04/21 07:11:39;;;;;;;;;;;;;;;;;;12985655;19;20849;-70
2023/04/21 07:15:57;;;;;;;;;;;;;;;;;;12985697;19;20373;-69
2023/04/21 07:20:16;;;;;;;;;;;;;;;;;;12985351;19;19918;-70
2023/04/21 07:24:34;;;;;;;;;;;;;;;;;;12984172;19;19919;-70
2023/04/21 07:28:52;;;;;;;;;;;;;;;;;;12985620;19;19929;-69
2023/04/21 07:33:10;;;;;;;;;;;;;;;;;;12983308;19;19923;-72
2023/04/21 07:37:27;;;;;;;;;;;;;;;;;;12984707;19;19935;-70
2023/04/21 07:41:45;;;;;;;;;;;;;;;;;;12983686;19;20338;-70
2023/04/21 07:46:03;;;;;;;;;;;;;;;;;;12982759;19;20385;-70
2023/04/21 07:50:20;;;;;;;;;;;;;;;;;;12983405;19;19938;-70
2023/04/21 07:54:38;;;;;;;;;;;;;;;;;;12981860;19;19919;-70
2023/04/21 07:58:56;;;;;;;;;;;;;;;;;;12982721;19;19923;-70
2023/04/21 08:03:13;;;;;;;;;;;;;;;;;;12982431;19;19921;-70
2023/04/21 08:07:31;;;;;;;;;;;;;;;;;;12983259;19;20022;-70
2023/04/21 08:11:49;;;;;;;;;;;;;;;;;;12982133;19;20274;-70
2023/04/21 08:16:06;;;;;;;;;;;;;;;;;;12982280;19;19930;-69
2023/04/21 08:20:24;;;;;;;;;;;;;;;;;;12982535;19;19934;-70
2023/04/21 08:24:42;;;;;;;;;;;;;;;;;;12978961;19;19934;-70
2023/04/21 08:29:06;;;;;;;;;;;;;;;;;;12981185;19;19922;-70
2023/04/21 08:33:23;;;;;;;;;;;;;;;;;;12980629;19;19932;-70
2023/04/21 08:37:41;;;;;;;;;;;;;;;;;;12980782;19;19923;-70
2023/04/21 08:42:00;;;;;;;;;;;;;;;;;;12979796;19;19923;-70
2023/04/21 08:46:18;;;;;;;;;;;;;;;;;;12978194;19;19947;-71
2023/04/21 08:50:36;;;;;;;;;;;;;;;;;;12980464;19;19915;-70
2023/04/21 08:54:55;;;;;;;;;;;;;;;;;;12978367;19;20338;-69
2023/04/21 08:59:12;;;;;;;;;;;;;;;;;;12976795;19;19929;-69
2023/04/21 09:03:30;;;;;;;;;;;;;;;;;;12980030;19;19926;-70
2023/04/21 09:07:47;;;;;;;;;;;;;;;;;;12980726;19;20566;-69
2023/04/21 09:12:05;;;;;;;;;;;;;;;;;;12979600;19;19926;-69
2023/04/21 09:16:23;;;;;;;;;;;;;;;;;;12979544;19;19914;-69
2023/04/21 09:20:42;;;;;;;;;;;;;;;;;;12978192;19;19914;-69
2023/04/21 09:25:00;;;;;;;;;;;;;;;;;;12978113;19;20006;-69
2023/04/21 09:29:22;;;;;;;;;;;;;;;;;;12978918;19;20397;-69
2023/04/21 09:33:48;;;;;;;;;;;;;;;;;;12978258;19;20385;-69
2023/04/21 09:38:15;;;;;;;;;;;;;;;;;;12987477;19;20399;-69
2023/04/21 09:42:34;;;;;;;;;;;;;;;;;;12989999;19;19919;-69
2023/04/21 09:47:01;;;;;;;;;;;;;;;;;;12990224;19;19919;-69
2023/04/21 09:51:20;;;;;;;;;;;;;;;;;;12989263;19;19938;-69
2023/04/21 09:55:57;;;;;;;;;;;;;;;;;;12989133;19;20326;-69
2023/04/21 10:00:16;;;;;;;;;;;;;;;;;;12989379;19;19914;-69
2023/04/21 10:04:39;;;;;;;;;;;;;;;;;;12986234;19;19930;-68
2023/04/21 10:08:57;;;;;;;;;;;;;;;;;;12989089;19;19919;-69
2023/04/21 10:13:17;;;;;;;;;;;;;;;;;;12988352;19;19923;-68
2023/04/21 10:17:35;;;;;;;;;;;;;;;;;;12989784;19;19918;-68
2023/04/21 10:21:56;;;;;;;;;;;;;;;;;;12988165;19;19914;-68
2023/04/21 10:26:34;;;;;;;;;;;;;;;;;;12988122;19;19926;-70
2023/04/21 10:31:24;;;;;;;;;;;;;;;;;;12988265;19;20346;-70
2023/04/21 10:35:57;;;;;;;;;;;;;;;;;;12985900;19;19954;-70
2023/04/21 10:40:34;;;;;;;;;;;;;;;;;;12986920;19;19914;-70
2023/04/21 10:45:05;;;;;;;;;;;;;;;;;;12985796;19;20250;-70
2023/04/21 10:49:27;;;;;;;;;;;;;;;;;;12985928;19;19922;-70
2023/04/21 10:53:44;;;;;;;;;;;;;;;;;;12986275;19;19915;-71
2023/04/21 10:58:07;;;;;;;;;;;;;;;;;;12986095;19;19947;-69
2023/04/21 11:02:26;;;;;;;;;;;;;;;;;;12986271;19;19918;-70
2023/04/21 11:07:11;;;;;;;;;;;;;;;;;;12986152;19;19915;-71
2023/04/21 11:11:29;;;;;;;;;;;;;;;;;;12986490;19;19915;-71
2023/04/21 11:15:58;;;;;;;;;;;;;;;;;;12985963;19;19919;-71
2023/04/21 11:20:16;;;;;;;;;;;;;;;;;;12985426;19;20260;-71
2023/04/21 11:24:33;;;;;;;;;;;;;;;;;;12983358;19;19928;-70
2023/04/21 11:28:51;;;;;;;;;;;;;;;;;;12984744;19;20279;-66
2023/04/21 11:33:09;;;;;;;;;;;;;;;;;;12983570;19;20668;-66
2023/04/21 11:37:26;;;;;;;;;;;;;;;;;;12983732;19;20215;-66
2023/04/21 11:41:46;;;;;;;;;;;;;;;;;;12983985;19;19918;-67
2023/04/21 11:46:12;;;;;;;;;;;;;;;;;;12983246;19;19923;-67
2023/04/21 11:50:33;;;;;;;;;;;;;;;;;;12984140;19;19926;-67
2023/04/21 11:55:02;;;;;;;;;;;;;;;;;;12984202;19;19919;-66
2023/04/21 11:59:25;;;;;;;;;;;;;;;;;;12980710;19;19914;-66
2023/04/21 12:03:58;;;;;;;;;;;;;;;;;;12983788;19;20346;-67
2023/04/21 12:08:16;;;;;;;;;;;;;;;;;;12982660;19;19919;-67
2023/04/21 12:12:37;;;;;;;;;;;;;;;;;;12982886;19;19921;-66
2023/04/21 12:16:57;;;;;;;;;;;;;;;;;;12958792;19;19914;-66
2023/04/21 12:21:15;;;;;;;;;;;;;;;;;;12957112;19;19918;-67
2023/04/21 12:25:32;;;;;;;;;;;;;;;;;;12981408;19;19946;-66
2023/04/21 12:29:50;;;;;;;;;;;;;;;;;;12981916;19;20242;-66
2023/04/21 12:34:08;;;;;;;;;;;;;;;;;;12980572;19;19911;-66
2023/04/21 12:38:25;;;;;;;;;;;;;;;;;;12979940;19;19986;-66
2023/04/21 12:42:43;;;;;;;;;;;;;;;;;;12981026;19;19926;-66
2023/04/21 12:47:00;;;;;;;;;;;;;;;;;;12980766;19;19928;-70
2023/04/21 12:51:18;;;;;;;;;;;;;;;;;;12980914;19;19928;-66
2023/04/21 12:55:36;;;;;;;;;;;;;;;;;;12981252;19;19918;-66
2023/04/21 12:59:54;;;;;;;;;;;;;;;;;;12980171;19;20335;-66
2023/04/21 13:04:12;;;;;;;;;;;;;;;;;;12979404;19;19957;-66
2023/04/21 13:08:30;;;;;;;;;;;;;;;;;;12979847;19;19919;-66
2023/04/21 13:12:48;;;;;;;;;;;;;;;;;;12988474;19;19911;-66
2023/04/21 13:17:05;;;;;;;;;;;;;;;;;;12991351;19;20261;-66
2023/04/21 13:21:23;;;;;;;;;;;;;;;;;;12991527;19;19915;-66
2023/04/21 13:25:40;;;;;;;;;;;;;;;;;;12989930;19;19919;-66
2023/04/21 13:29:58;;;;;;;;;;;;;;;;;;12991649;19;20335;-67
2023/04/21 13:34:16;;;;;;;;;;;;;;;;;;12991155;19;20358;-66
2023/04/21 13:38:33;;;;;;;;;;;;;;;;;;12982329;19;20571;-66
2023/04/21 13:42:51;;;;;;;;;;;;;;;;;;12971032;19;20532;-66
2023/04/21 13:47:08;;;;;;;;;;;;;;;;;;12985335;19;19931;-66
2023/04/21 13:51:26;;;;;;;;;;;;;;;;;;12986575;19;20733;-66
2023/04/21 13:55:44;;;;;;;;;;;;;;;;;;12985248;19;19931;-66
2023/04/21 14:00:05;;;;;;;;;;;;;;;;;;12985578;19;19922;-66
2023/04/21 14:04:22;;;;;;;;;;;;;;;;;;12983780;19;20482;-66
2023/04/21 14:08:40;;;;;;;;;;;;;;;;;;12977006;19;20331;-66
2023/04/21 14:12:58;;;;;;;;;;;;;;;;;;12986148;19;19919;-66
2023/04/21 14:17:15;;;;;;;;;;;;;;;;;;12988065;19;19994;-66
2023/04/21 14:21:33;;;;;;;;;;;;;;;;;;12985168;19;19911;-66
2023/04/21 14:25:51;;;;;;;;;;;;;;;;;;12985522;19;20054;-66
2023/04/21 14:30:12;;;;;;;;;;;;;;;;;;12973167;19;19929;-66
2023/04/21 14:34:30;;;;;;;;;;;;;;;;;;12989851;19;19919;-66
2023/04/21 14:38:48;;;;;;;;;;;;;;;;;;12983505;19;19926;-66
2023/04/21 14:43:05;;;;;;;;;;;;;;;;;;12982803;19;19929;-66
2023/04/21 14:47:23;;;;;;;;;;;;;;;;;;12984132;19;19974;-67
2023/04/21 14:51:41;;;;;;;;;;;;;;;;;;12984052;19;19911;-67
2023/04/21 14:55:58;;;;;;;;;;;;;;;;;;12986410;19;19915;-67
2023/04/21 15:00:16;;;;;;;;;;;;;;;;;;12987968;19;20342;-68
2023/04/21 15:04:34;;;;;;;;;;;;;;;;;;12986222;19;20299;-68
2023/04/21 15:08:52;;;;;;;;;;;;;;;;;;12987103;19;19978;-67
2023/04/21 15:13:10;;;;;;;;;;;;;;;;;;12986774;19;19914;-68
2023/04/21 15:17:27;;;;;;;;;;;;;;;;;;12984108;19;19914;-67
2023/04/21 15:21:45;;;;;;;;;;;;;;;;;;12981265;19;20776;-66
2023/04/21 15:26:03;;;;;;;;;;;;;;;;;;12980590;19;20025;-69
2023/04/21 15:30:21;;;;;;;;;;;;;;;;;;12984520;19;19943;-68
2023/04/21 15:34:38;;;;;;;;;;;;;;;;;;12985126;19;20017;-67
2023/04/21 15:38:56;;;;;;;;;;;;;;;;;;12983376;19;19957;-67
2023/04/21 15:43:14;;;;;;;;;;;;;;;;;;12983020;19;19918;-68
2023/04/21 15:47:31;;;;;;;;;;;;;;;;;;12983100;19;20740;-67
2023/04/21 15:51:49;;;;;;;;;;;;;;;;;;12983488;19;19930;-67
2023/04/21 15:56:07;;;;;;;;;;;;;;;;;;12979467;19;19932;-69
2023/04/21 16:00:24;;;;;;;;;;;;;;;;;;12980957;19;19928;-67
2023/04/21 16:04:42;;;;;;;;;;;;;;;;;;12980251;19;19930;-68
2023/04/21 16:09:01;;;;;;;;;;;;;;;;;;12978054;19;20746;-71
2023/04/21 16:13:18;;;;;;;;;;;;;;;;;;12978332;19;19948;-64
2023/04/21 16:17:36;;;;;;;;;;;;;;;;;;12979488;19;19994;-63
2023/04/21 16:21:54;;;;;;;;;;;;;;;;;;12980280;19;19947;-64
2023/04/21 16:42:52;;;;;;;;;;;;;;;;;;12976158;19;19914;-64
2023/04/21 16:47:10;;;;;;;;;;;;;;;;;;12981729;19;19915;-64
2023/04/21 16:51:28;;;;;;;;;;;;;;;;;;12988501;19;19945;-63
2023/04/21 16:55:45;;;;;;;;;;;;;;;;;;12987930;19;19922;-64
2023/04/21 17:00:07;;;;;;;;;;;;;;;;;;12986860;19;19957;-64
2023/04/21 17:04:25;;;;;;;;;;;;;;;;;;12988319;19;20315;-63
2023/04/21 17:08:42;;;;;;;;;;;;;;;;;;12987430;19;20341;-63
2023/04/21 17:13:00;;;;;;;;;;;;;;;;;;12987356;19;19926;-63
2023/04/21 17:17:18;;;;;;;;;;;;;;;;;;12987771;19;19914;-63
2023/04/21 17:21:35;;;;;;;;;;;;;;;;;;12984768;19;19923;-63
2023/04/21 17:25:53;;;;;;;;;;;;;;;;;;12986501;19;19919;-64
2023/04/21 17:30:11;;;;;;;;;;;;;;;;;;12985232;19;19955;-63
2023/04/21 17:34:30;;;;;;;;;;;;;;;;;;12986238;19;19939;-62
2023/04/21 17:38:48;;;;;;;;;;;;;;;;;;12985801;19;19974;-62
2023/04/21 17:43:05;;;;;;;;;;;;;;;;;;12984786;19;19949;-64
2023/04/21 17:47:23;;;;;;;;;;;;;;;;;;12986308;19;19942;-63
2023/04/21 17:51:41;;;;;;;;;;;;;;;;;;12985808;19;19925;-62
2023/04/21 17:55:59;;;;;;;;;;;;;;;;;;12985980;19;20504;-62
2023/04/21 18:00:17;;;;;;;;;;;;;;;;;;12986041;19;19919;-62
2023/04/21 18:04:35;;;;;;;;;;;;;;;;;;12984471;19;20348;-62
2023/04/21 18:08:53;;;;;;;;;;;;;;;;;;12985042;19;19953;-62
2023/04/21 18:13:10;;;;;;;;;;;;;;;;;;12984750;19;19922;-62
2023/04/21 18:17:33;;;;;;;;;;;;;;;;;;12983441;19;19932;-62
2023/04/21 18:21:50;;;;;;;;;;;;;;;;;;12983414;19;19915;-62
2023/04/21 18:26:08;;;;;;;;;;;;;;;;;;12982524;19;20749;-62
2023/04/21 18:30:25;;;;;;;;;;;;;;;;;;12983710;19;19934;-62
2023/04/21 18:34:46;;;;;;;;;;;;;;;;;;12984214;19;19923;-62
2023/04/21 18:39:04;;;;;;;;;;;;;;;;;;12983440;19;19935;-62
2023/04/21 18:43:21;;;;;;;;;;;;;;;;;;12983120;19;20002;-62
2023/04/21 18:47:40;;;;;;;;;;;;;;;;;;12983623;19;19931;-62
2023/04/21 18:51:59;;;;;;;;;;;;;;;;;;12982377;19;20430;-62
2023/04/21 18:56:16;;;;;;;;;;;;;;;;;;12981923;19;19970;-62
2023/04/21 19:00:37;;;;;;;;;;;;;;;;;;12982355;19;19914;-61
2023/04/21 19:04:58;;;;;;;;;;;;;;;;;;12980278;19;19926;-61
2023/04/21 19:09:16;;;;;;;;;;;;;;;;;;12980420;19;19923;-62
2023/04/21 19:13:33;;;;;;;;;;;;;;;;;;12980631;19;20276;-61
2023/04/21 19:17:51;;;;;;;;;;;;;;;;;;12980892;19;19915;-61
2023/04/21 19:22:10;;;;;;;;;;;;;;;;;;12979053;19;20483;-62
2023/04/21 19:26:27;;;;;;;;;;;;;;;;;;12977978;19;19942;-61
2023/04/21 19:30:45;;;;;;;;;;;;;;;;;;12981862;19;20026;-62
2023/04/21 19:35:06;;;;;;;;;;;;;;;;;;12980847;19;19927;-61
2023/04/21 19:39:24;;;;;;;;;;;;;;;;;;12979814;19;20632;-61
2023/04/21 19:43:42;;;;;;;;;;;;;;;;;;12978998;19;19940;-62
2023/04/21 19:47:59;;;;;;;;;;;;;;;;;;12979290;19;20029;-61
2023/04/21 19:52:17;;;;;;;;;;;;;;;;;;12978294;19;20030;-62
2023/04/21 19:56:35;;;;;;;;;;;;;;;;;;12978287;19;20787;-61
2023/04/21 20:00:53;;;;;;;;;;;;;;;;;;12978065;19;19966;-61
2023/04/21 20:05:10;;;;;;;;;;;;;;;;;;12977802;19;19925;-61
2023/04/21 20:09:28;;;;;;;;;;;;;;;;;;12979084;19;19935;-61
2023/04/21 20:13:46;;;;;;;;;;;;;;;;;;12977719;19;20034;-62
2023/04/21 20:18:08;;;;;;;;;;;;;;;;;;12976604;19;19933;-62
2023/04/21 20:22:26;;;;;;;;;;;;;;;;;;12975006;19;19918;-62
2023/04/21 20:26:44;;;;;;;;;;;;;;;;;;12976041;19;20689;-63
2023/04/21 20:31:01;;;;;;;;;;;;;;;;;;12974730;19;19931;-64
2023/04/21 20:35:19;;;;;;;;;;;;;;;;;;12977993;19;19922;-62
2023/04/21 20:39:37;;;;;;;;;;;;;;;;;;12977655;19;19943;-62
2023/04/21 20:43:55;;;;;;;;;;;;;;;;;;12976278;19;20017;-62
2023/04/21 20:48:13;;;;;;;;;;;;;;;;;;12976251;19;20358;-62
2023/04/21 20:52:31;;;;;;;;;;;;;;;;;;12977075;19;19936;-62
2023/04/21 20:56:49;;;;;;;;;;;;;;;;;;12976105;19;19919;-62
2023/04/21 21:01:06;;;;;;;;;;;;;;;;;;12974805;19;20634;-62
2023/04/21 21:05:25;;;;;;;;;;;;;;;;;;12974709;19;19948;-62
2023/04/21 21:09:43;;;;;;;;;;;;;;;;;;12974961;19;20010;-62
2023/04/21 21:14:00;;;;;;;;;;;;;;;;;;12974740;19;19926;-62
2023/04/21 21:18:18;;;;;;;;;;;;;;;;;;12974679;19;20294;-62
2023/04/21 21:22:35;;;;;;;;;;;;;;;;;;12973817;19;19940;-62
2023/04/21 21:26:53;;;;;;;;;;;;;;;;;;12974848;19;19931;-62
2023/04/21 21:31:10;;;;;;;;;;;;;;;;;;12974734;19;19926;-62
2023/04/21 21:35:28;;;;;;;;;;;;;;;;;;12987692;19;19923;-62
2023/04/21 21:39:45;;;;;;;;;;;;;;;;;;12987427;19;20567;-61
2023/04/21 21:44:03;;;;;;;;;;;;;;;;;;12985420;19;19956;-62
2023/04/21 21:48:21;;;;;;;;;;;;;;;;;;12986293;19;20006;-62
2023/04/21 21:52:39;;;;;;;;;;;;;;;;;;12986017;19;19927;-62
2023/04/21 21:56:57;;;;;;;;;;;;;;;;;;12985176;19;19932;-62
2023/04/21 22:01:16;;;;;;;;;;;;;;;;;;12985325;19;20387;-62
2023/04/21 22:05:34;;;;;;;;;;;;;;;;;;12984141;19;19948;-62
2023/04/21 22:09:51;;;;;;;;;;;;;;;;;;12984625;19;20508;-62
2023/04/21 22:14:09;;;;;;;;;;;;;;;;;;12981087;19;19914;-62
2023/04/21 22:18:39;;;;;;;;;;;;;;;;;;12984937;19;20343;-62
2023/04/21 22:22:56;;;;;;;;;;;;;;;;;;12983890;19;20778;-62
2023/04/21 22:27:14;;;;;;;;;;;;;;;;;;12983513;19;19979;-62
2023/04/21 22:31:32;;;;;;;;;;;;;;;;;;12984204;19;19959;-62
2023/04/21 22:35:49;;;;;;;;;;;;;;;;;;12983730;19;20373;-62
2023/04/21 22:40:08;;;;;;;;;;;;;;;;;;12982028;19;19928;-62
2023/04/21 22:44:25;;;;;;;;;;;;;;;;;;12980441;19;20014;-62
2023/04/21 22:48:45;;;;;;;;;;;;;;;;;;12982668;19;19958;-62
2023/04/21 22:53:02;;;;;;;;;;;;;;;;;;12981841;19;19974;-61
2023/04/21 22:57:20;;;;;;;;;;;;;;;;;;12981879;19;19931;-62
2023/04/21 23:01:38;;;;;;;;;;;;;;;;;;12981974;19;19931;-61
2023/04/21 23:05:55;;;;;;;;;;;;;;;;;;12980203;19;20030;-62
2023/04/21 23:10:13;;;;;;;;;;;;;;;;;;12980865;19;20394;-61
2023/04/21 23:14:30;;;;;;;;;;;;;;;;;;12981025;19;19918;-61
2023/04/21 23:18:48;;;;;;;;;;;;;;;;;;12981363;19;19978;-61
2023/04/21 23:23:06;;;;;;;;;;;;;;;;;;12979931;19;19931;-62
2023/04/21 23:27:23;;;;;;;;;;;;;;;;;;12978329;19;20768;-60
2023/04/21 23:31:41;;;;;;;;;;;;;;;;;;12980363;19;19915;-60
2023/04/21 23:35:58;;;;;;;;;;;;;;;;;;12979915;19;19990;-62
2023/04/21 23:40:16;;;;;;;;;;;;;;;;;;12979305;19;20034;-60
2023/04/21 23:44:36;;;;;;;;;;;;;;;;;;12979077;19;19918;-61
2023/04/21 23:48:53;;;;;;;;;;;;;;;;;;12978579;19;20018;-61
2023/04/21 23:53:11;;;;;;;;;;;;;;;;;;12978444;19;19978;-62
2023/04/21 23:57:28;;;;;;;;;;;;;;;;;;12978650;19;19922;-62
